Wan Hai 273 — 9V7586 — position and weather

sailwx.info

Track history (hours):
 
Tides and Currents Weather Stations Pressure Air Temp Water Temp Dewpoint Dewpoint Depression Visibility Wind Speed Wind Dir Waves Ship Positions

Wan Hai 273

Last reported at 2017-Sep-14 15:27 UTC. Time now 2017-Sep-19 13:47 UTC.
Position N 25°53' E 119°55'.

Length 172 m; draft 9.4 m.

Type: Cargo ship. MMSI: 566406000.

Date/timePositionNaut miles runAvg speedWind from/ knotsBaromVisibWave heightAir tempDewpointWater temp
2017-Sep-14 15:27N 25°53' E 119°55'1514.7
2017-Sep-14 14:25N 25°53' E 120°12'185 4.3
2017-Sep-12 19:07N 22°48' E 120°04'216.2
2017-Sep-12 19:00N 22°47' E 120°05'815.9
2017-Sep-12 18:30N 22°39' E 120°08'714.6
2017-Sep-12 18:00N 22°33' E 120°12'713.1
2017-Sep-12 17:30N 22°33' E 120°19'2 3.1
2017-Sep-12 17:00N 22°35' E 120°18'0 0.0
2017-Sep-12 16:25N 22°35' E 120°18'0 0.0
2017-Sep-12 15:58N 22°35' E 120°18'0 0.0
2017-Sep-12 15:28N 22°35' E 120°18'0 0.0
2017-Sep-12 14:58N 22°35' E 120°18'0 0.0
2017-Sep-12 14:25N 22°35' E 120°18'0 0.1
2017-Sep-12 13:55N 22°35' E 120°18'0 0.1
2017-Sep-12 13:28N 22°35' E 120°18'0 0.0
2017-Sep-12 11:01N 22°35' E 120°18'0 0.1
2017-Sep-12 10:43N 22°35' E 120°18'0 0.1
2017-Sep-12 10:19N 22°35' E 120°18'0 0.0
2017-Sep-12 09:55N 22°35' E 120°18'0 0.1
2017-Sep-12 09:28N 22°35' E 120°18'0 0.0
2017-Sep-12 08:58N 22°35' E 120°18'0 0.0
2017-Sep-12 08:30N 22°35' E 120°18'1 2.8
2017-Sep-12 08:00N 22°36' E 120°17'3 6.1
2017-Sep-12 07:30N 22°37' E 120°15'4 8.2
2017-Sep-12 07:00N 22°37' E 120°10'3 6.5
2017-Sep-12 06:30N 22°36' E 120°07'0 0.4
2017-Sep-12 06:00N 22°36' E 120°07'2 3.2
2017-Sep-12 05:30N 22°35' E 120°06'1 1.3
2017-Sep-12 05:00N 22°35' E 120°05'0 1.0
2017-Sep-12 04:30N 22°36' E 120°05'0 0.9
2017-Sep-12 03:57N 22°36' E 120°05'0 0.9
2017-Sep-12 03:30N 22°36' E 120°04'0 0.8
2017-Sep-12 03:00N 22°37' E 120°04'0 1.0
2017-Sep-12 02:30N 22°37' E 120°04'0 1.0
2017-Sep-12 02:00N 22°37' E 120°04'0 0.7
2017-Sep-12 01:21N 22°38' E 120°04'0 0.3
2017-Sep-12 01:00N 22°38' E 120°04'0 0.6
2017-Sep-12 00:27N 22°38' E 120°04'4 8.7
2017-Sep-12 00:00N 22°35' E 120°01'815.9
2017-Sep-11 23:30N 22°28' E 119°57'816.2
2017-Sep-11 23:00N 22°21' E 119°52'2617.3
2017-Sep-11 21:31N 22°02' E 119°33'019.1
2017-Sep-11 21:30N 22°02' E 119°33'5717.6
2017-Sep-11 18:15N 21°20' E 118°51'716.7
2017-Sep-11 17:50N 21°15' E 118°46'516.3
2017-Sep-11 17:30N 21°11' E 118°42'916.8
2017-Sep-11 16:59N 21°04' E 118°37'  
2017-Sep-07 00:11N 15°57' E 108°38'619.6
2017-Sep-06 23:54N 16°01' E 108°34'819.7
2017-Sep-06 23:30N 16°06' E 108°27'1318.5
2017-Sep-06 22:47N 16°10' E 108°14'311.3
2017-Sep-06 22:30N 16°07' E 108°13'0 0.6
2017-Sep-06 21:55N 16°07' E 108°13'0 0.0
2017-Sep-06 21:31N 16°07' E 108°13'0 0.0
2017-Sep-06 20:59N 16°07' E 108°13'0 0.0
2017-Sep-06 20:30N 16°07' E 108°13'0 0.0
2017-Sep-06 19:57N 16°07' E 108°13'0 0.0
2017-Sep-06 19:27N 16°07' E 108°13'0 0.0
2017-Sep-06 18:57N 16°07' E 108°13'0 0.0
2017-Sep-06 18:27N 16°07' E 108°13'0 0.0
2017-Sep-06 17:57N 16°07' E 108°13'0 0.0
2017-Sep-06 17:27N 16°07' E 108°13'0 0.0
2017-Sep-06 17:00N 16°07' E 108°13'0 0.0
2017-Sep-06 16:27N 16°07' E 108°13'0 0.0
2017-Sep-06 15:57N 16°07' E 108°13'0 1.1
2017-Sep-06 15:30N 16°07' E 108°12'3 5.4
2017-Sep-06 15:00N 16°10' E 108°12'0 0.2
2017-Sep-06 14:30N 16°10' E 108°12'0 0.0
2017-Sep-06 14:00N 16°10' E 108°12'0 0.1
2017-Sep-06 13:30N 16°10' E 108°12'0 0.0
2017-Sep-06 13:00N 16°10' E 108°12'0 0.0
2017-Sep-06 12:24N 16°10' E 108°12'0 0.2
2017-Sep-06 11:57N 16°10' E 108°12'2 4.0
2017-Sep-06 11:30N 16°11' E 108°14'1316.3
2017-Sep-06 10:43N 16°18' E 108°25'417.8
2017-Sep-06 10:30N 16°20' E 108°28'73618.4
2017-Sep-04 18:35N 22°20' E 119°49'318.8
2017-Sep-04 18:25N 22°22' E 119°52'818.8
2017-Sep-04 18:00N 22°25' E 119°59'1019.1
2017-Sep-04 17:31N 22°30' E 120°08'917.1
2017-Sep-04 17:00N 22°33' E 120°17'2 4.4
2017-Sep-04 16:30N 22°35' E 120°18'0 0.1
2017-Sep-04 15:33N 22°35' E 120°18'0 0.0
2017-Sep-04 15:27N 22°35' E 120°18'  
Track history (hours):
 
Tides and Currents Weather Stations Pressure Air Temp Water Temp Dewpoint Dewpoint Depression Visibility Wind Speed Wind Dir Waves Ship Positions

Wan Hai 273

Last reported at 2017-Sep-14 15:27 UTC. Time now 2017-Sep-19 13:47 UTC.
Position N 25°53' E 119°55'.

Length 172 m; draft 9.4 m.

Type: Cargo ship. MMSI: 566406000.

Date/timePositionNaut miles runAvg speedWind from/ knotsBaromVisibWave heightAir tempDewpointWater temp
2017-Sep-14 15:27N 25°53' E 119°55'1514.7
2017-Sep-14 14:25N 25°53' E 120°12'185 4.3
2017-Sep-12 19:07N 22°48' E 120°04'216.2
2017-Sep-12 19:00N 22°47' E 120°05'815.9
2017-Sep-12 18:30N 22°39' E 120°08'714.6
2017-Sep-12 18:00N 22°33' E 120°12'713.1
2017-Sep-12 17:30N 22°33' E 120°19'2 3.1
2017-Sep-12 17:00N 22°35' E 120°18'0 0.0
2017-Sep-12 16:25N 22°35' E 120°18'0 0.0
2017-Sep-12 15:58N 22°35' E 120°18'0 0.0
2017-Sep-12 15:28N 22°35' E 120°18'0 0.0
2017-Sep-12 14:58N 22°35' E 120°18'0 0.0
2017-Sep-12 14:25N 22°35' E 120°18'0 0.1
2017-Sep-12 13:55N 22°35' E 120°18'0 0.1
2017-Sep-12 13:28N 22°35' E 120°18'0 0.0
2017-Sep-12 11:01N 22°35' E 120°18'0 0.1
2017-Sep-12 10:43N 22°35' E 120°18'0 0.1
2017-Sep-12 10:19N 22°35' E 120°18'0 0.0
2017-Sep-12 09:55N 22°35' E 120°18'0 0.1
2017-Sep-12 09:28N 22°35' E 120°18'0 0.0
2017-Sep-12 08:58N 22°35' E 120°18'0 0.0
2017-Sep-12 08:30N 22°35' E 120°18'1 2.8
2017-Sep-12 08:00N 22°36' E 120°17'3 6.1
2017-Sep-12 07:30N 22°37' E 120°15'4 8.2
2017-Sep-12 07:00N 22°37' E 120°10'3 6.5
2017-Sep-12 06:30N 22°36' E 120°07'0 0.4
2017-Sep-12 06:00N 22°36' E 120°07'2 3.2
2017-Sep-12 05:30N 22°35' E 120°06'1 1.3
2017-Sep-12 05:00N 22°35' E 120°05'0 1.0
2017-Sep-12 04:30N 22°36' E 120°05'0 0.9
2017-Sep-12 03:57N 22°36' E 120°05'0 0.9
2017-Sep-12 03:30N 22°36' E 120°04'0 0.8
2017-Sep-12 03:00N 22°37' E 120°04'0 1.0
2017-Sep-12 02:30N 22°37' E 120°04'0 1.0
2017-Sep-12 02:00N 22°37' E 120°04'0 0.7
2017-Sep-12 01:21N 22°38' E 120°04'0 0.3
2017-Sep-12 01:00N 22°38' E 120°04'0 0.6
2017-Sep-12 00:27N 22°38' E 120°04'4 8.7
2017-Sep-12 00:00N 22°35' E 120°01'815.9
2017-Sep-11 23:30N 22°28' E 119°57'816.2
2017-Sep-11 23:00N 22°21' E 119°52'2617.3
2017-Sep-11 21:31N 22°02' E 119°33'019.1
2017-Sep-11 21:30N 22°02' E 119°33'5717.6
2017-Sep-11 18:15N 21°20' E 118°51'716.7
2017-Sep-11 17:50N 21°15' E 118°46'516.3
2017-Sep-11 17:30N 21°11' E 118°42'916.8
2017-Sep-11 16:59N 21°04' E 118°37'  
2017-Sep-07 00:11N 15°57' E 108°38'619.6
2017-Sep-06 23:54N 16°01' E 108°34'819.7
2017-Sep-06 23:30N 16°06' E 108°27'1318.5
2017-Sep-06 22:47N 16°10' E 108°14'311.3
2017-Sep-06 22:30N 16°07' E 108°13'0 0.6
2017-Sep-06 21:55N 16°07' E 108°13'0 0.0
2017-Sep-06 21:31N 16°07' E 108°13'0 0.0
2017-Sep-06 20:59N 16°07' E 108°13'0 0.0
2017-Sep-06 20:30N 16°07' E 108°13'0 0.0
2017-Sep-06 19:57N 16°07' E 108°13'0 0.0
2017-Sep-06 19:27N 16°07' E 108°13'0 0.0
2017-Sep-06 18:57N 16°07' E 108°13'0 0.0
2017-Sep-06 18:27N 16°07' E 108°13'0 0.0
2017-Sep-06 17:57N 16°07' E 108°13'0 0.0
2017-Sep-06 17:27N 16°07' E 108°13'0 0.0
2017-Sep-06 17:00N 16°07' E 108°13'0 0.0
2017-Sep-06 16:27N 16°07' E 108°13'0 0.0
2017-Sep-06 15:57N 16°07' E 108°13'0 1.1
2017-Sep-06 15:30N 16°07' E 108°12'3 5.4
2017-Sep-06 15:00N 16°10' E 108°12'0 0.2
2017-Sep-06 14:30N 16°10' E 108°12'0 0.0
2017-Sep-06 14:00N 16°10' E 108°12'0 0.1
2017-Sep-06 13:30N 16°10' E 108°12'0 0.0
2017-Sep-06 13:00N 16°10' E 108°12'0 0.0
2017-Sep-06 12:24N 16°10' E 108°12'0 0.2
2017-Sep-06 11:57N 16°10' E 108°12'2 4.0
2017-Sep-06 11:30N 16°11' E 108°14'1316.3
2017-Sep-06 10:43N 16°18' E 108°25'417.8
2017-Sep-06 10:30N 16°20' E 108°28'73618.4
2017-Sep-04 18:35N 22°20' E 119°49'318.8
2017-Sep-04 18:25N 22°22' E 119°52'818.8
2017-Sep-04 18:00N 22°25' E 119°59'1019.1
2017-Sep-04 17:31N 22°30' E 120°08'917.1
2017-Sep-04 17:00N 22°33' E 120°17'2 4.4
2017-Sep-04 16:30N 22°35' E 120°18'0 0.1
2017-Sep-04 15:33N 22°35' E 120°18'0 0.0
2017-Sep-04 15:27N 22°35' E 120°18'  

Dump ship's entire track history